sensor_id;sensor_type;location;lat;lon;timestamp;temperature;humidity
13589;DHT22;6865;52.552;13.434;2023-05-10T00:00:44;12.60;81.40
13589;DHT22;6865;52.552;13.434;2023-05-10T00:03:11;12.50;81.50
13589;DHT22;6865;52.552;13.434;2023-05-10T00:05:38;12.40;82.10
13589;DHT22;6865;52.552;13.434;2023-05-10T00:08:05;12.40;82.20
13589;DHT22;6865;52.552;13.434;2023-05-10T00:10:31;12.40;82.20
13589;DHT22;6865;52.552;13.434;2023-05-10T00:12:58;12.30;82.50
13589;DHT22;6865;52.552;13.434;2023-05-10T00:15:25;12.20;83.10
13589;DHT22;6865;52.552;13.434;2023-05-10T00:17:51;12.20;83.10
13589;DHT22;6865;52.552;13.434;2023-05-10T00:20:18;12.20;83.30
13589;DHT22;6865;52.552;13.434;2023-05-10T00:22:45;12.20;83.50
13589;DHT22;6865;52.552;13.434;2023-05-10T00:25:11;12.20;83.50
13589;DHT22;6865;52.552;13.434;2023-05-10T00:27:38;12.20;83.90
13589;DHT22;6865;52.552;13.434;2023-05-10T00:30:05;12.20;84.10
13589;DHT22;6865;52.552;13.434;2023-05-10T00:32:32;12.20;84.20
13589;DHT22;6865;52.552;13.434;2023-05-10T00:34:59;12.20;84.30
13589;DHT22;6865;52.552;13.434;2023-05-10T00:37:26;12.20;84.50
13589;DHT22;6865;52.552;13.434;2023-05-10T00:39:52;12.10;84.60
13589;DHT22;6865;52.552;13.434;2023-05-10T00:42:19;12.00;84.70
13589;DHT22;6865;52.552;13.434;2023-05-10T00:44:46;12.00;85.00
13589;DHT22;6865;52.552;13.434;2023-05-10T00:47:13;12.00;85.30
13589;DHT22;6865;52.552;13.434;2023-05-10T00:49:40;11.90;85.40
13589;DHT22;6865;52.552;13.434;2023-05-10T00:52:08;12.00;85.60
13589;DHT22;6865;52.552;13.434;2023-05-10T00:54:35;12.00;85.90
13589;DHT22;6865;52.552;13.434;2023-05-10T00:57:02;11.90;86.00
13589;DHT22;6865;52.552;13.434;2023-05-10T00:59:29;11.90;86.20
13589;DHT22;6865;52.552;13.434;2023-05-10T01:01:57;11.90;86.40
13589;DHT22;6865;52.552;13.434;2023-05-10T01:04:24;11.90;86.70
13589;DHT22;6865;52.552;13.434;2023-05-10T01:06:54;11.80;86.80
13589;DHT22;6865;52.552;13.434;2023-05-10T01:09:21;11.70;87.40
13589;DHT22;6865;52.552;13.434;2023-05-10T01:11:49;11.70;87.70
13589;DHT22;6865;52.552;13.434;2023-05-10T01:14:18;11.70;88.10
13589;DHT22;6865;52.552;13.434;2023-05-10T01:16:47;11.70;88.30
13589;DHT22;6865;52.552;13.434;2023-05-10T01:19:25;11.70;88.60
13589;DHT22;6865;52.552;13.434;2023-05-10T01:22:09;11.70;89.00
13589;DHT22;6865;52.552;13.434;2023-05-10T01:25:00;11.60;89.20
13589;DHT22;6865;52.552;13.434;2023-05-10T01:27:47;11.50;89.70
13589;DHT22;6865;52.552;13.434;2023-05-10T01:30:26;11.60;89.70
13589;DHT22;6865;52.552;13.434;2023-05-10T01:33:14;11.50;89.90
13589;DHT22;6865;52.552;13.434;2023-05-10T01:36:03;11.50;90.00
13589;DHT22;6865;52.552;13.434;2023-05-10T01:38:38;11.50;90.20
13589;DHT22;6865;52.552;13.434;2023-05-10T01:41:25;11.50;90.40
13589;DHT22;6865;52.552;13.434;2023-05-10T01:44:09;11.40;90.50
13589;DHT22;6865;52.552;13.434;2023-05-10T01:46:40;11.40;90.80
13589;DHT22;6865;52.552;13.434;2023-05-10T01:49:34;11.40;90.90
13589;DHT22;6865;52.552;13.434;2023-05-10T01:52:08;11.30;90.90
13589;DHT22;6865;52.552;13.434;2023-05-10T01:54:38;11.30;91.20
13589;DHT22;6865;52.552;13.434;2023-05-10T01:57:09;11.30;91.30
13589;DHT22;6865;52.552;13.434;2023-05-10T01:59:39;11.30;91.50
13589;DHT22;6865;52.552;13.434;2023-05-10T02:02:10;11.20;91.50
13589;DHT22;6865;52.552;13.434;2023-05-10T02:04:39;11.20;91.60
13589;DHT22;6865;52.552;13.434;2023-05-10T02:07:08;11.20;91.80
13589;DHT22;6865;52.552;13.434;2023-05-10T02:09:36;11.20;92.00
13589;DHT22;6865;52.552;13.434;2023-05-10T02:12:05;11.20;92.00
13589;DHT22;6865;52.552;13.434;2023-05-10T02:14:35;11.10;92.20
13589;DHT22;6865;52.552;13.434;2023-05-10T02:17:04;11.10;92.40
13589;DHT22;6865;52.552;13.434;2023-05-10T02:19:32;11.00;92.50
13589;DHT22;6865;52.552;13.434;2023-05-10T02:22:00;11.00;92.60
13589;DHT22;6865;52.552;13.434;2023-05-10T02:24:28;11.00;92.80
13589;DHT22;6865;52.552;13.434;2023-05-10T02:26:56;10.90;92.90
13589;DHT22;6865;52.552;13.434;2023-05-10T02:29:24;10.90;93.20
13589;DHT22;6865;52.552;13.434;2023-05-10T02:31:52;10.90;93.40
13589;DHT22;6865;52.552;13.434;2023-05-10T02:34:22;10.70;94.00
13589;DHT22;6865;52.552;13.434;2023-05-10T02:36:50;10.80;93.90
13589;DHT22;6865;52.552;13.434;2023-05-10T02:39:19;10.70;94.10
13589;DHT22;6865;52.552;13.434;2023-05-10T02:41:48;10.70;94.20
13589;DHT22;6865;52.552;13.434;2023-05-10T02:44:19;10.70;94.20
13589;DHT22;6865;52.552;13.434;2023-05-10T02:46:47;10.60;94.50
13589;DHT22;6865;52.552;13.434;2023-05-10T02:49:14;10.70;94.70
13589;DHT22;6865;52.552;13.434;2023-05-10T02:51:45;10.70;94.70
13589;DHT22;6865;52.552;13.434;2023-05-10T02:54:24;10.70;94.70
13589;DHT22;6865;52.552;13.434;2023-05-10T02:56:58;10.60;94.70
13589;DHT22;6865;52.552;13.434;2023-05-10T02:59:27;10.70;94.80
13589;DHT22;6865;52.552;13.434;2023-05-10T03:01:53;10.80;94.80
13589;DHT22;6865;52.552;13.434;2023-05-10T03:04:20;10.60;94.90
13589;DHT22;6865;52.552;13.434;2023-05-10T03:06:47;10.60;95.00
13589;DHT22;6865;52.552;13.434;2023-05-10T03:09:14;10.50;95.10
13589;DHT22;6865;52.552;13.434;2023-05-10T03:12:07;10.50;95.30
13589;DHT22;6865;52.552;13.434;2023-05-10T03:17:41;10.50;95.40
13589;DHT22;6865;52.552;13.434;2023-05-10T03:20:20;8.80;95.00
13589;DHT22;6865;52.552;13.434;2023-05-10T03:22:55;10.50;95.60
13589;DHT22;6865;52.552;13.434;2023-05-10T03:25:24;10.50;95.50
13589;DHT22;6865;52.552;13.434;2023-05-10T03:27:52;10.40;95.70
13589;DHT22;6865;52.552;13.434;2023-05-10T03:30:19;10.40;96.10
13589;DHT22;6865;52.552;13.434;2023-05-10T03:32:46;10.40;96.10
13589;DHT22;6865;52.552;13.434;2023-05-10T03:35:12;11.70;96.40
13589;DHT22;6865;52.552;13.434;2023-05-10T03:37:40;10.40;96.20
13589;DHT22;6865;52.552;13.434;2023-05-10T03:40:08;10.40;96.10
13589;DHT22;6865;52.552;13.434;2023-05-10T03:42:35;10.40;96.20
13589;DHT22;6865;52.552;13.434;2023-05-10T03:45:02;10.40;96.20
13589;DHT22;6865;52.552;13.434;2023-05-10T03:47:28;10.30;96.50
13589;DHT22;6865;52.552;13.434;2023-05-10T03:49:56;10.30;96.60
13589;DHT22;6865;52.552;13.434;2023-05-10T03:52:22;10.30;96.50
13589;DHT22;6865;52.552;13.434;2023-05-10T03:54:49;10.30;96.80
13589;DHT22;6865;52.552;13.434;2023-05-10T03:57:16;10.40;96.80
13589;DHT22;6865;52.552;13.434;2023-05-10T03:59:42;10.30;96.70
13589;DHT22;6865;52.552;13.434;2023-05-10T04:02:09;10.40;96.50
13589;DHT22;6865;52.552;13.434;2023-05-10T04:04:35;10.40;96.60
13589;DHT22;6865;52.552;13.434;2023-05-10T04:07:02;10.40;96.70
13589;DHT22;6865;52.552;13.434;2023-05-10T04:09:29;10.40;96.90
13589;DHT22;6865;52.552;13.434;2023-05-10T04:11:56;10.40;97.00
13589;DHT22;6865;52.552;13.434;2023-05-10T04:14:22;10.40;96.90
13589;DHT22;6865;52.552;13.434;2023-05-10T04:16:49;10.30;97.10
13589;DHT22;6865;52.552;13.434;2023-05-10T04:19:16;10.30;97.40
13589;DHT22;6865;52.552;13.434;2023-05-10T04:21:42;10.40;97.30
13589;DHT22;6865;52.552;13.434;2023-05-10T04:24:09;10.40;97.10
13589;DHT22;6865;52.552;13.434;2023-05-10T04:26:35;10.40;97.10
13589;DHT22;6865;52.552;13.434;2023-05-10T04:29:02;10.50;97.20
13589;DHT22;6865;52.552;13.434;2023-05-10T04:31:29;10.60;97.00
13589;DHT22;6865;52.552;13.434;2023-05-10T04:33:55;10.50;96.90
13589;DHT22;6865;52.552;13.434;2023-05-10T04:36:22;10.50;97.00
13589;DHT22;6865;52.552;13.434;2023-05-10T04:38:49;10.50;96.70
13589;DHT22;6865;52.552;13.434;2023-05-10T04:41:15;10.60;96.60
13589;DHT22;6865;52.552;13.434;2023-05-10T04:43:42;10.60;96.80
13589;DHT22;6865;52.552;13.434;2023-05-10T04:46:09;10.60;96.90
13589;DHT22;6865;52.552;13.434;2023-05-10T04:48:35;10.70;96.80
13589;DHT22;6865;52.552;13.434;2023-05-10T04:51:02;10.70;96.60
13589;DHT22;6865;52.552;13.434;2023-05-10T04:53:30;10.80;96.60
13589;DHT22;6865;52.552;13.434;2023-05-10T04:55:57;10.80;96.80
13589;DHT22;6865;52.552;13.434;2023-05-10T04:58:23;10.80;96.60
13589;DHT22;6865;52.552;13.434;2023-05-10T05:00:50;10.80;96.40
13589;DHT22;6865;52.552;13.434;2023-05-10T05:03:17;10.90;96.50
13589;DHT22;6865;52.552;13.434;2023-05-10T05:05:44;10.90;96.40
13589;DHT22;6865;52.552;13.434;2023-05-10T05:08:11;11.10;96.20
13589;DHT22;6865;52.552;13.434;2023-05-10T05:10:37;11.00;96.20
13589;DHT22;6865;52.552;13.434;2023-05-10T05:13:04;11.20;95.90
13589;DHT22;6865;52.552;13.434;2023-05-10T05:15:31;11.30;95.90
13589;DHT22;6865;52.552;13.434;2023-05-10T05:17:57;11.30;95.70
13589;DHT22;6865;52.552;13.434;2023-05-10T05:20:24;11.50;95.70
13589;DHT22;6865;52.552;13.434;2023-05-10T05:22:51;11.80;95.10
13589;DHT22;6865;52.552;13.434;2023-05-10T05:25:17;12.10;94.00
13589;DHT22;6865;52.552;13.434;2023-05-10T05:27:44;12.20;93.70
13589;DHT22;6865;52.552;13.434;2023-05-10T05:30:11;12.30;93.90
13589;DHT22;6865;52.552;13.434;2023-05-10T05:32:37;12.40;93.30
13589;DHT22;6865;52.552;13.434;2023-05-10T05:35:04;12.40;93.40
13589;DHT22;6865;52.552;13.434;2023-05-10T05:37:32;12.40;93.40
13589;DHT22;6865;52.552;13.434;2023-05-10T05:39:58;12.50;93.00
13589;DHT22;6865;52.552;13.434;2023-05-10T05:42:27;12.60;92.80
13589;DHT22;6865;52.552;13.434;2023-05-10T05:44:54;12.60;92.60
13589;DHT22;6865;52.552;13.434;2023-05-10T05:47:20;12.80;92.80
13589;DHT22;6865;52.552;13.434;2023-05-10T05:49:47;12.90;92.60
13589;DHT22;6865;52.552;13.434;2023-05-10T05:52:13;13.10;91.80
13589;DHT22;6865;52.552;13.434;2023-05-10T05:54:40;13.40;91.50
13589;DHT22;6865;52.552;13.434;2023-05-10T05:57:07;13.50;91.30
13589;DHT22;6865;52.552;13.434;2023-05-10T05:59:33;13.80;91.00
13589;DHT22;6865;52.552;13.434;2023-05-10T06:02:00;14.00;90.30
13589;DHT22;6865;52.552;13.434;2023-05-10T06:04:27;14.00;90.30
13589;DHT22;6865;52.552;13.434;2023-05-10T06:06:54;14.00;90.20
13589;DHT22;6865;52.552;13.434;2023-05-10T06:09:20;14.00;90.40
13589;DHT22;6865;52.552;13.434;2023-05-10T06:11:47;14.00;90.40
13589;DHT22;6865;52.552;13.434;2023-05-10T06:14:14;13.90;90.00
13589;DHT22;6865;52.552;13.434;2023-05-10T06:16:41;14.40;89.30
13589;DHT22;6865;52.552;13.434;2023-05-10T06:19:07;14.20;88.90
13589;DHT22;6865;52.552;13.434;2023-05-10T06:21:34;14.40;89.10
13589;DHT22;6865;52.552;13.434;2023-05-10T06:24:01;14.50;89.00
13589;DHT22;6865;52.552;13.434;2023-05-10T06:26:27;14.50;88.40
13589;DHT22;6865;52.552;13.434;2023-05-10T06:28:54;14.50;88.70
13589;DHT22;6865;52.552;13.434;2023-05-10T06:31:21;14.60;87.90
13589;DHT22;6865;52.552;13.434;2023-05-10T06:33:47;15.80;88.50
13589;DHT22;6865;52.552;13.434;2023-05-10T06:36:14;14.70;87.00
13589;DHT22;6865;52.552;13.434;2023-05-10T06:38:41;14.70;87.10
13589;DHT22;6865;52.552;13.434;2023-05-10T06:41:07;14.60;87.00
13589;DHT22;6865;52.552;13.434;2023-05-10T06:43:34;14.80;86.90
13589;DHT22;6865;52.552;13.434;2023-05-10T06:46:01;14.80;87.10
13589;DHT22;6865;52.552;13.434;2023-05-10T06:48:28;15.00;86.90
13589;DHT22;6865;52.552;13.434;2023-05-10T06:50:54;15.00;86.00
13589;DHT22;6865;52.552;13.434;2023-05-10T06:53:21;15.10;86.00
13589;DHT22;6865;52.552;13.434;2023-05-10T06:55:49;15.20;85.60
13589;DHT22;6865;52.552;13.434;2023-05-10T06:58:15;15.30;86.00
13589;DHT22;6865;52.552;13.434;2023-05-10T07:00:42;15.60;85.60
13589;DHT22;6865;52.552;13.434;2023-05-10T07:03:10;15.70;84.80
13589;DHT22;6865;52.552;13.434;2023-05-10T07:05:37;15.90;83.60
13589;DHT22;6865;52.552;13.434;2023-05-10T07:08:04;15.80;83.80
13589;DHT22;6865;52.552;13.434;2023-05-10T07:10:30;15.80;83.60
13589;DHT22;6865;52.552;13.434;2023-05-10T07:12:57;15.90;83.10
13589;DHT22;6865;52.552;13.434;2023-05-10T07:15:24;15.80;83.40
13589;DHT22;6865;52.552;13.434;2023-05-10T07:17:51;16.00;83.10
13589;DHT22;6865;52.552;13.434;2023-05-10T07:20:18;15.90;83.10
13589;DHT22;6865;52.552;13.434;2023-05-10T07:22:45;15.90;83.00
13589;DHT22;6865;52.552;13.434;2023-05-10T07:25:12;16.10;82.60
13589;DHT22;6865;52.552;13.434;2023-05-10T07:27:39;16.70;82.50
13589;DHT22;6865;52.552;13.434;2023-05-10T07:30:06;16.70;80.60
13589;DHT22;6865;52.552;13.434;2023-05-10T07:32:33;17.00;79.40
13589;DHT22;6865;52.552;13.434;2023-05-10T07:34:59;17.20;79.40
13589;DHT22;6865;52.552;13.434;2023-05-10T07:37:26;17.20;78.90
13589;DHT22;6865;52.552;13.434;2023-05-10T07:39:53;17.20;78.00
13589;DHT22;6865;52.552;13.434;2023-05-10T07:42:19;17.30;78.10
13589;DHT22;6865;52.552;13.434;2023-05-10T07:44:46;17.30;78.50
13589;DHT22;6865;52.552;13.434;2023-05-10T07:47:13;17.70;77.60
13589;DHT22;6865;52.552;13.434;2023-05-10T07:49:40;18.10;76.50
13589;DHT22;6865;52.552;13.434;2023-05-10T07:52:07;18.60;74.70
13589;DHT22;6865;52.552;13.434;2023-05-10T07:54:33;19.20;73.30
13589;DHT22;6865;52.552;13.434;2023-05-10T07:57:00;19.30;72.00
13589;DHT22;6865;52.552;13.434;2023-05-10T07:59:27;19.40;71.70
13589;DHT22;6865;52.552;13.434;2023-05-10T08:01:53;18.80;72.50
13589;DHT22;6865;52.552;13.434;2023-05-10T08:04:20;18.50;73.40
13589;DHT22;6865;52.552;13.434;2023-05-10T08:06:47;18.00;74.80
13589;DHT22;6865;52.552;13.434;2023-05-10T08:09:13;17.90;75.80
13589;DHT22;6865;52.552;13.434;2023-05-10T08:11:40;17.90;76.40
13589;DHT22;6865;52.552;13.434;2023-05-10T08:14:07;17.80;76.40
13589;DHT22;6865;52.552;13.434;2023-05-10T08:16:33;17.80;76.20
13589;DHT22;6865;52.552;13.434;2023-05-10T08:19:00;17.80;76.70
13589;DHT22;6865;52.552;13.434;2023-05-10T08:21:27;17.80;76.20
13589;DHT22;6865;52.552;13.434;2023-05-10T08:23:54;17.80;76.60
13589;DHT22;6865;52.552;13.434;2023-05-10T08:26:20;17.90;75.90
13589;DHT22;6865;52.552;13.434;2023-05-10T08:28:48;17.90;76.00
13589;DHT22;6865;52.552;13.434;2023-05-10T08:31:15;17.80;75.80
13589;DHT22;6865;52.552;13.434;2023-05-10T08:33:42;17.90;76.60
13589;DHT22;6865;52.552;13.434;2023-05-10T08:36:28;18.10;76.10
13589;DHT22;6865;52.552;13.434;2023-05-10T08:38:55;18.30;75.50
13589;DHT22;6865;52.552;13.434;2023-05-10T08:41:23;18.30;74.30
13589;DHT22;6865;52.552;13.434;2023-05-10T08:43:51;18.40;74.40
13589;DHT22;6865;52.552;13.434;2023-05-10T08:46:19;18.50;74.70
13589;DHT22;6865;52.552;13.434;2023-05-10T08:48:47;18.40;74.10
13589;DHT22;6865;52.552;13.434;2023-05-10T08:51:19;18.40;74.10
13589;DHT22;6865;52.552;13.434;2023-05-10T08:53:46;18.40;74.40
13589;DHT22;6865;52.552;13.434;2023-05-10T08:56:12;18.60;73.60
13589;DHT22;6865;52.552;13.434;2023-05-10T08:58:39;18.60;74.00
13589;DHT22;6865;52.552;13.434;2023-05-10T09:01:06;18.80;73.00
13589;DHT22;6865;52.552;13.434;2023-05-10T09:03:33;18.90;73.10
13589;DHT22;6865;52.552;13.434;2023-05-10T09:06:01;19.10;72.50
13589;DHT22;6865;52.552;13.434;2023-05-10T09:08:28;19.20;72.10
13589;DHT22;6865;52.552;13.434;2023-05-10T09:10:55;19.30;72.00
13589;DHT22;6865;52.552;13.434;2023-05-10T09:13:23;19.30;72.30
13589;DHT22;6865;52.552;13.434;2023-05-10T09:15:51;19.40;71.90
13589;DHT22;6865;52.552;13.434;2023-05-10T09:18:19;19.50;72.50
13589;DHT22;6865;52.552;13.434;2023-05-10T09:20:46;19.60;72.60
13589;DHT22;6865;52.552;13.434;2023-05-10T09:23:12;19.70;72.20
13589;DHT22;6865;52.552;13.434;2023-05-10T09:25:41;19.80;71.30
13589;DHT22;6865;52.552;13.434;2023-05-10T09:28:08;19.90;70.90
13589;DHT22;6865;52.552;13.434;2023-05-10T09:30:36;19.80;70.30
13589;DHT22;6865;52.552;13.434;2023-05-10T09:33:02;19.60;70.50
13589;DHT22;6865;52.552;13.434;2023-05-10T09:35:31;19.80;70.00
13589;DHT22;6865;52.552;13.434;2023-05-10T09:38:02;19.70;69.90
13589;DHT22;6865;52.552;13.434;2023-05-10T09:40:30;19.70;69.80
13589;DHT22;6865;52.552;13.434;2023-05-10T09:45:26;19.90;70.00
13589;DHT22;6865;52.552;13.434;2023-05-10T09:47:54;20.00;70.60
13589;DHT22;6865;52.552;13.434;2023-05-10T09:50:21;20.10;70.20
13589;DHT22;6865;52.552;13.434;2023-05-10T09:52:51;19.90;68.20
13589;DHT22;6865;52.552;13.434;2023-05-10T09:55:43;19.90;68.70
13589;DHT22;6865;52.552;13.434;2023-05-10T09:58:13;20.10;68.90
13589;DHT22;6865;52.552;13.434;2023-05-10T10:00:43;20.20;68.20
13589;DHT22;6865;52.552;13.434;2023-05-10T10:03:19;20.30;67.90
13589;DHT22;6865;52.552;13.434;2023-05-10T10:05:47;20.20;68.20
13589;DHT22;6865;52.552;13.434;2023-05-10T10:08:15;20.20;67.50
13589;DHT22;6865;52.552;13.434;2023-05-10T10:10:42;20.20;66.90
13589;DHT22;6865;52.552;13.434;2023-05-10T10:13:12;20.30;67.10
13589;DHT22;6865;52.552;13.434;2023-05-10T10:15:39;20.40;67.80
13589;DHT22;6865;52.552;13.434;2023-05-10T10:18:06;20.50;67.80
13589;DHT22;6865;52.552;13.434;2023-05-10T10:20:37;20.40;66.80
13589;DHT22;6865;52.552;13.434;2023-05-10T10:23:03;20.50;66.30
13589;DHT22;6865;52.552;13.434;2023-05-10T10:25:30;20.50;66.30
13589;DHT22;6865;52.552;13.434;2023-05-10T10:30:54;20.80;66.30
13589;DHT22;6865;52.552;13.434;2023-05-10T10:33:50;20.80;66.30
13589;DHT22;6865;52.552;13.434;2023-05-10T10:36:17;20.80;66.30
13589;DHT22;6865;52.552;13.434;2023-05-10T10:41:29;20.80;65.80
13589;DHT22;6865;52.552;13.434;2023-05-10T10:52:29;21.10;65.80
13589;DHT22;6865;52.552;13.434;2023-05-10T10:55:07;21.30;64.80
13589;DHT22;6865;52.552;13.434;2023-05-10T11:00:35;21.50;63.60
13589;DHT22;6865;52.552;13.434;2023-05-10T11:03:09;21.40;63.10
13589;DHT22;6865;52.552;13.434;2023-05-10T11:05:44;21.50;63.10
13589;DHT22;6865;52.552;13.434;2023-05-10T11:08:39;21.40;63.40
13589;DHT22;6865;52.552;13.434;2023-05-10T11:11:07;21.40;63.90
13589;DHT22;6865;52.552;13.434;2023-05-10T11:13:45;21.50;64.20
13589;DHT22;6865;52.552;13.434;2023-05-10T11:16:21;21.60;63.30
13589;DHT22;6865;52.552;13.434;2023-05-10T11:18:58;21.60;63.20
13589;DHT22;6865;52.552;13.434;2023-05-10T11:21:25;21.60;62.70
13589;DHT22;6865;52.552;13.434;2023-05-10T11:23:55;21.70;62.40
13589;DHT22;6865;52.552;13.434;2023-05-10T11:26:30;21.70;62.60
13589;DHT22;6865;52.552;13.434;2023-05-10T11:28:57;21.90;63.20
13589;DHT22;6865;52.552;13.434;2023-05-10T11:31:25;21.90;62.90
13589;DHT22;6865;52.552;13.434;2023-05-10T11:33:55;22.10;62.40
13589;DHT22;6865;52.552;13.434;2023-05-10T11:36:24;22.10;63.20
13589;DHT22;6865;52.552;13.434;2023-05-10T11:38:52;21.50;62.50
13589;DHT22;6865;52.552;13.434;2023-05-10T11:41:20;22.30;62.10
13589;DHT22;6865;52.552;13.434;2023-05-10T11:43:50;22.30;62.80
13589;DHT22;6865;52.552;13.434;2023-05-10T11:46:19;22.30;61.80
13589;DHT22;6865;52.552;13.434;2023-05-10T11:48:48;22.40;61.80
13589;DHT22;6865;52.552;13.434;2023-05-10T11:51:19;22.40;61.00
13589;DHT22;6865;52.552;13.434;2023-05-10T11:53:46;22.20;61.10
13589;DHT22;6865;52.552;13.434;2023-05-10T11:56:13;22.20;61.30
13589;DHT22;6865;52.552;13.434;2023-05-10T11:58:39;22.20;61.90
13589;DHT22;6865;52.552;13.434;2023-05-10T12:01:07;22.40;62.10
13589;DHT22;6865;52.552;13.434;2023-05-10T12:03:34;22.50;61.70
13589;DHT22;6865;52.552;13.434;2023-05-10T12:06:02;22.60;61.00
13589;DHT22;6865;52.552;13.434;2023-05-10T12:08:30;22.60;60.90
13589;DHT22;6865;52.552;13.434;2023-05-10T12:11:08;22.50;60.70
13589;DHT22;6865;52.552;13.434;2023-05-10T12:13:39;22.50;61.10
13589;DHT22;6865;52.552;13.434;2023-05-10T12:16:13;22.70;60.60
13589;DHT22;6865;52.552;13.434;2023-05-10T12:18:41;22.70;59.30
13589;DHT22;6865;52.552;13.434;2023-05-10T12:21:13;22.70;59.30
13589;DHT22;6865;52.552;13.434;2023-05-10T12:23:39;22.60;58.80
13589;DHT22;6865;52.552;13.434;2023-05-10T12:26:09;22.70;59.40
13589;DHT22;6865;52.552;13.434;2023-05-10T12:28:37;22.70;58.20
13589;DHT22;6865;52.552;13.434;2023-05-10T12:31:04;22.70;58.40
13589;DHT22;6865;52.552;13.434;2023-05-10T12:33:39;22.90;58.40
13589;DHT22;6865;52.552;13.434;2023-05-10T12:36:12;22.90;57.10
13589;DHT22;6865;52.552;13.434;2023-05-10T12:38:43;23.00;57.30
13589;DHT22;6865;52.552;13.434;2023-05-10T12:41:14;23.00;57.40
13589;DHT22;6865;52.552;13.434;2023-05-10T12:43:42;22.90;56.80
13589;DHT22;6865;52.552;13.434;2023-05-10T12:46:13;22.90;56.50
13589;DHT22;6865;52.552;13.434;2023-05-10T12:48:41;22.80;56.40
13589;DHT22;6865;52.552;13.434;2023-05-10T12:51:09;22.80;57.10
13589;DHT22;6865;52.552;13.434;2023-05-10T12:53:38;22.70;57.60
13589;DHT22;6865;52.552;13.434;2023-05-10T12:56:08;22.60;58.00
13589;DHT22;6865;52.552;13.434;2023-05-10T12:58:35;22.50;58.50
13589;DHT22;6865;52.552;13.434;2023-05-10T13:01:02;22.70;58.00
13589;DHT22;6865;52.552;13.434;2023-05-10T13:03:29;22.60;57.20
13589;DHT22;6865;52.552;13.434;2023-05-10T13:05:56;22.90;56.30
13589;DHT22;6865;52.552;13.434;2023-05-10T13:08:23;22.90;55.40
13589;DHT22;6865;52.552;13.434;2023-05-10T13:10:50;23.00;55.70
13589;DHT22;6865;52.552;13.434;2023-05-10T13:13:16;23.10;55.70
13589;DHT22;6865;52.552;13.434;2023-05-10T13:15:44;23.20;54.50
13589;DHT22;6865;52.552;13.434;2023-05-10T13:18:11;23.30;54.30
13589;DHT22;6865;52.552;13.434;2023-05-10T13:20:38;23.40;53.80
13589;DHT22;6865;52.552;13.434;2023-05-10T13:23:04;23.40;53.90
13589;DHT22;6865;52.552;13.434;2023-05-10T13:25:31;23.50;54.00
13589;DHT22;6865;52.552;13.434;2023-05-10T13:27:58;23.30;54.20
13589;DHT22;6865;52.552;13.434;2023-05-10T13:30:24;23.30;54.00
13589;DHT22;6865;52.552;13.434;2023-05-10T13:32:51;23.00;54.40
13589;DHT22;6865;52.552;13.434;2023-05-10T13:35:18;23.00;54.90
13589;DHT22;6865;52.552;13.434;2023-05-10T13:37:44;23.10;53.80
13589;DHT22;6865;52.552;13.434;2023-05-10T13:40:11;23.10;54.20
13589;DHT22;6865;52.552;13.434;2023-05-10T13:42:38;23.10;54.50
13589;DHT22;6865;52.552;13.434;2023-05-10T13:45:06;23.20;54.60
13589;DHT22;6865;52.552;13.434;2023-05-10T13:47:33;23.20;54.20
13589;DHT22;6865;52.552;13.434;2023-05-10T13:49:59;23.20;54.40
13589;DHT22;6865;52.552;13.434;2023-05-10T13:52:27;23.00;54.80
13589;DHT22;6865;52.552;13.434;2023-05-10T13:54:53;22.80;54.90
13589;DHT22;6865;52.552;13.434;2023-05-10T13:57:21;22.70;54.50
13589;DHT22;6865;52.552;13.434;2023-05-10T13:59:49;22.80;54.60
13589;DHT22;6865;52.552;13.434;2023-05-10T14:02:16;22.90;54.50
13589;DHT22;6865;52.552;13.434;2023-05-10T14:04:43;23.00;54.80
13589;DHT22;6865;52.552;13.434;2023-05-10T14:07:09;23.10;54.80
13589;DHT22;6865;52.552;13.434;2023-05-10T14:09:36;23.10;55.20
13589;DHT22;6865;52.552;13.434;2023-05-10T14:12:03;23.00;54.60
13589;DHT22;6865;52.552;13.434;2023-05-10T14:14:30;23.00;54.80
13589;DHT22;6865;52.552;13.434;2023-05-10T14:16:56;23.00;54.80
13589;DHT22;6865;52.552;13.434;2023-05-10T14:19:23;23.20;54.10
13589;DHT22;6865;52.552;13.434;2023-05-10T14:21:50;23.10;53.90
13589;DHT22;6865;52.552;13.434;2023-05-10T14:24:18;23.30;54.10
13589;DHT22;6865;52.552;13.434;2023-05-10T14:26:44;23.30;53.40
13589;DHT22;6865;52.552;13.434;2023-05-10T14:29:11;23.40;52.50
13589;DHT22;6865;52.552;13.434;2023-05-10T14:31:39;23.40;52.30
13589;DHT22;6865;52.552;13.434;2023-05-10T14:34:06;22.30;52.30
13589;DHT22;6865;52.552;13.434;2023-05-10T14:36:33;23.40;53.10
13589;DHT22;6865;52.552;13.434;2023-05-10T14:39:00;23.40;53.00
13589;DHT22;6865;52.552;13.434;2023-05-10T14:41:26;23.50;53.50
13589;DHT22;6865;52.552;13.434;2023-05-10T14:43:53;23.40;52.40
13589;DHT22;6865;52.552;13.434;2023-05-10T14:46:19;23.40;52.70
13589;DHT22;6865;52.552;13.434;2023-05-10T14:48:46;23.50;51.40
13589;DHT22;6865;52.552;13.434;2023-05-10T14:51:13;23.40;51.50
13589;DHT22;6865;52.552;13.434;2023-05-10T14:53:40;23.50;50.80
13589;DHT22;6865;52.552;13.434;2023-05-10T14:56:06;23.50;50.40
13589;DHT22;6865;52.552;13.434;2023-05-10T14:58:33;23.50;50.20
13589;DHT22;6865;52.552;13.434;2023-05-10T15:01:00;23.50;51.60
13589;DHT22;6865;52.552;13.434;2023-05-10T15:03:27;23.30;52.30
13589;DHT22;6865;52.552;13.434;2023-05-10T15:05:55;23.40;52.80
13589;DHT22;6865;52.552;13.434;2023-05-10T15:08:24;23.40;51.90
13589;DHT22;6865;52.552;13.434;2023-05-10T15:10:51;23.30;52.00
13589;DHT22;6865;52.552;13.434;2023-05-10T15:13:18;23.30;52.60
13589;DHT22;6865;52.552;13.434;2023-05-10T15:15:44;23.50;52.50
13589;DHT22;6865;52.552;13.434;2023-05-10T15:18:11;23.40;51.80
13589;DHT22;6865;52.552;13.434;2023-05-10T15:20:38;23.60;52.20
13589;DHT22;6865;52.552;13.434;2023-05-10T15:23:05;23.70;51.10
13589;DHT22;6865;52.552;13.434;2023-05-10T15:25:31;23.70;50.80
13589;DHT22;6865;52.552;13.434;2023-05-10T15:28:01;23.70;51.40
13589;DHT22;6865;52.552;13.434;2023-05-10T15:30:38;23.40;51.50
13589;DHT22;6865;52.552;13.434;2023-05-10T15:33:05;23.30;51.90
13589;DHT22;6865;52.552;13.434;2023-05-10T15:35:32;23.40;51.30
13589;DHT22;6865;52.552;13.434;2023-05-10T15:38:02;23.30;51.60
13589;DHT22;6865;52.552;13.434;2023-05-10T15:40:28;23.20;52.10
13589;DHT22;6865;52.552;13.434;2023-05-10T15:42:55;23.10;52.60
13589;DHT22;6865;52.552;13.434;2023-05-10T15:45:21;23.20;51.00
13589;DHT22;6865;52.552;13.434;2023-05-10T15:47:48;23.10;51.50
13589;DHT22;6865;52.552;13.434;2023-05-10T15:50:15;23.00;52.20
13589;DHT22;6865;52.552;13.434;2023-05-10T15:52:42;23.00;52.60
13589;DHT22;6865;52.552;13.434;2023-05-10T15:55:09;22.80;53.50
13589;DHT22;6865;52.552;13.434;2023-05-10T15:57:39;22.80;53.70
13589;DHT22;6865;52.552;13.434;2023-05-10T16:00:10;22.70;54.20